sensor_id;sensor_type;location;lat;lon;timestamp;temperature;humidity
2571;DHT22;1295;51.130;6.732;2022-10-30T00:02:02;18.60;99.90
2571;DHT22;1295;51.130;6.732;2022-10-30T00:04:27;18.50;99.90
2571;DHT22;1295;51.130;6.732;2022-10-30T00:07:00;18.50;99.90
2571;DHT22;1295;51.130;6.732;2022-10-30T00:09:26;18.50;99.90
2571;DHT22;1295;51.130;6.732;2022-10-30T00:11:52;18.50;99.90
2571;DHT22;1295;51.130;6.732;2022-10-30T00:14:17;18.20;99.90
2571;DHT22;1295;51.130;6.732;2022-10-30T00:16:43;18.20;99.90
2571;DHT22;1295;51.130;6.732;2022-10-30T00:19:09;18.40;99.90
2571;DHT22;1295;51.130;6.732;2022-10-30T00:21:34;18.50;99.90
2571;DHT22;1295;51.130;6.732;2022-10-30T00:24:00;18.60;99.90
2571;DHT22;1295;51.130;6.732;2022-10-30T00:26:26;18.60;99.90
2571;DHT22;1295;51.130;6.732;2022-10-30T00:28:52;18.40;99.90
2571;DHT22;1295;51.130;6.732;2022-10-30T00:31:17;18.40;99.90
2571;DHT22;1295;51.130;6.732;2022-10-30T00:33:50;18.40;99.90
2571;DHT22;1295;51.130;6.732;2022-10-30T00:36:15;18.40;99.90
2571;DHT22;1295;51.130;6.732;2022-10-30T00:38:41;18.40;99.90
2571;DHT22;1295;51.130;6.732;2022-10-30T00:41:10;18.30;99.90
2571;DHT22;1295;51.130;6.732;2022-10-30T00:43:35;18.40;99.90
2571;DHT22;1295;51.130;6.732;2022-10-30T00:46:00;18.40;99.90
2571;DHT22;1295;51.130;6.732;2022-10-30T00:48:24;18.50;99.90
2571;DHT22;1295;51.130;6.732;2022-10-30T00:50:50;18.40;99.90
2571;DHT22;1295;51.130;6.732;2022-10-30T00:53:16;18.40;99.90
2571;DHT22;1295;51.130;6.732;2022-10-30T00:55:44;18.10;99.90
2571;DHT22;1295;51.130;6.732;2022-10-30T00:58:09;17.70;99.90
2571;DHT22;1295;51.130;6.732;2022-10-30T01:00:35;17.70;99.90
2571;DHT22;1295;51.130;6.732;2022-10-30T01:03:00;17.70;99.90
2571;DHT22;1295;51.130;6.732;2022-10-30T01:05:26;17.50;99.90
2571;DHT22;1295;51.130;6.732;2022-10-30T01:07:51;17.90;99.90
2571;DHT22;1295;51.130;6.732;2022-10-30T01:10:17;18.10;99.90
2571;DHT22;1295;51.130;6.732;2022-10-30T01:12:43;17.90;99.90
2571;DHT22;1295;51.130;6.732;2022-10-30T01:15:14;17.90;99.90
2571;DHT22;1295;51.130;6.732;2022-10-30T01:18:01;18.10;99.90
2571;DHT22;1295;51.130;6.732;2022-10-30T01:21:35;18.30;99.90
2571;DHT22;1295;51.130;6.732;2022-10-30T01:25:52;18.40;99.90
2571;DHT22;1295;51.130;6.732;2022-10-30T01:28:26;18.40;99.90
2571;DHT22;1295;51.130;6.732;2022-10-30T01:31:07;18.40;99.90
2571;DHT22;1295;51.130;6.732;2022-10-30T01:33:50;18.30;99.90
2571;DHT22;1295;51.130;6.732;2022-10-30T01:36:23;18.20;99.90
2571;DHT22;1295;51.130;6.732;2022-10-30T01:38:49;18.30;99.90
2571;DHT22;1295;51.130;6.732;2022-10-30T01:41:12;18.30;99.90
2571;DHT22;1295;51.130;6.732;2022-10-30T01:43:38;18.30;99.90
2571;DHT22;1295;51.130;6.732;2022-10-30T01:46:16;18.20;99.90
2571;DHT22;1295;51.130;6.732;2022-10-30T01:48:43;18.20;99.90
2571;DHT22;1295;51.130;6.732;2022-10-30T01:51:18;17.90;99.90
2571;DHT22;1295;51.130;6.732;2022-10-30T01:53:45;17.90;99.90
2571;DHT22;1295;51.130;6.732;2022-10-30T01:56:17;18.10;99.90
2571;DHT22;1295;51.130;6.732;2022-10-30T01:58:47;18.10;99.90
2571;DHT22;1295;51.130;6.732;2022-10-30T02:01:10;18.20;99.90
2571;DHT22;1295;51.130;6.732;2022-10-30T02:03:36;18.20;99.90
2571;DHT22;1295;51.130;6.732;2022-10-30T02:06:02;18.20;99.90
2571;DHT22;1295;51.130;6.732;2022-10-30T02:08:29;18.20;99.90
2571;DHT22;1295;51.130;6.732;2022-10-30T02:10:54;18.20;99.90
2571;DHT22;1295;51.130;6.732;2022-10-30T02:13:20;18.20;99.90
2571;DHT22;1295;51.130;6.732;2022-10-30T02:15:46;18.20;99.90
2571;DHT22;1295;51.130;6.732;2022-10-30T02:18:11;18.10;99.90
2571;DHT22;1295;51.130;6.732;2022-10-30T02:20:38;18.20;99.90
2571;DHT22;1295;51.130;6.732;2022-10-30T02:23:03;18.20;99.90
2571;DHT22;1295;51.130;6.732;2022-10-30T02:25:30;18.20;99.90
2571;DHT22;1295;51.130;6.732;2022-10-30T02:27:55;18.20;99.90
2571;DHT22;1295;51.130;6.732;2022-10-30T02:30:21;18.30;99.90
2571;DHT22;1295;51.130;6.732;2022-10-30T02:32:46;18.30;99.90
2571;DHT22;1295;51.130;6.732;2022-10-30T02:35:18;18.20;99.90
2571;DHT22;1295;51.130;6.732;2022-10-30T02:37:54;18.20;99.90
2571;DHT22;1295;51.130;6.732;2022-10-30T02:40:20;18.30;99.90
2571;DHT22;1295;51.130;6.732;2022-10-30T02:42:50;18.30;99.90
2571;DHT22;1295;51.130;6.732;2022-10-30T02:45:11;18.30;99.90
2571;DHT22;1295;51.130;6.732;2022-10-30T02:47:37;18.30;99.90
2571;DHT22;1295;51.130;6.732;2022-10-30T02:50:02;18.20;99.90
2571;DHT22;1295;51.130;6.732;2022-10-30T02:52:28;18.20;99.90
2571;DHT22;1295;51.130;6.732;2022-10-30T02:54:54;18.20;99.90
2571;DHT22;1295;51.130;6.732;2022-10-30T02:57:19;18.20;99.90
2571;DHT22;1295;51.130;6.732;2022-10-30T02:59:45;18.20;99.90
2571;DHT22;1295;51.130;6.732;2022-10-30T03:02:11;18.20;99.90
2571;DHT22;1295;51.130;6.732;2022-10-30T03:04:36;18.20;99.90
2571;DHT22;1295;51.130;6.732;2022-10-30T03:07:03;18.20;99.90
2571;DHT22;1295;51.130;6.732;2022-10-30T03:09:28;18.20;99.90
2571;DHT22;1295;51.130;6.732;2022-10-30T03:11:54;18.20;99.90
2571;DHT22;1295;51.130;6.732;2022-10-30T03:14:20;18.20;99.90
2571;DHT22;1295;51.130;6.732;2022-10-30T03:16:46;18.10;99.90
2571;DHT22;1295;51.130;6.732;2022-10-30T03:19:12;18.10;99.90
2571;DHT22;1295;51.130;6.732;2022-10-30T03:21:37;18.10;99.90
2571;DHT22;1295;51.130;6.732;2022-10-30T03:24:04;18.10;99.90
2571;DHT22;1295;51.130;6.732;2022-10-30T03:26:30;18.10;99.90
2571;DHT22;1295;51.130;6.732;2022-10-30T03:28:56;18.10;99.90
2571;DHT22;1295;51.130;6.732;2022-10-30T03:31:22;18.10;99.90
2571;DHT22;1295;51.130;6.732;2022-10-30T03:33:48;18.10;99.90
2571;DHT22;1295;51.130;6.732;2022-10-30T03:36:14;18.10;99.90
2571;DHT22;1295;51.130;6.732;2022-10-30T03:38:39;18.10;99.90
2571;DHT22;1295;51.130;6.732;2022-10-30T03:41:05;18.00;99.90
2571;DHT22;1295;51.130;6.732;2022-10-30T03:43:30;18.00;99.90
2571;DHT22;1295;51.130;6.732;2022-10-30T03:45:56;18.00;99.90
2571;DHT22;1295;51.130;6.732;2022-10-30T03:48:23;18.00;99.90
2571;DHT22;1295;51.130;6.732;2022-10-30T03:50:48;18.00;99.90
2571;DHT22;1295;51.130;6.732;2022-10-30T03:53:14;18.00;99.90
2571;DHT22;1295;51.130;6.732;2022-10-30T03:55:40;18.00;99.90
2571;DHT22;1295;51.130;6.732;2022-10-30T03:58:05;18.00;99.90
2571;DHT22;1295;51.130;6.732;2022-10-30T04:00:31;18.00;99.90
2571;DHT22;1295;51.130;6.732;2022-10-30T04:02:57;18.00;99.90
2571;DHT22;1295;51.130;6.732;2022-10-30T04:05:23;17.90;99.90
2571;DHT22;1295;51.130;6.732;2022-10-30T04:07:54;18.00;99.90
2571;DHT22;1295;51.130;6.732;2022-10-30T04:10:15;17.90;99.90
2571;DHT22;1295;51.130;6.732;2022-10-30T04:12:40;17.90;99.90
2571;DHT22;1295;51.130;6.732;2022-10-30T04:15:07;17.90;99.90
2571;DHT22;1295;51.130;6.732;2022-10-30T04:17:33;17.90;99.90
2571;DHT22;1295;51.130;6.732;2022-10-30T04:19:58;17.90;99.90
2571;DHT22;1295;51.130;6.732;2022-10-30T04:22:25;17.90;99.90
2571;DHT22;1295;51.130;6.732;2022-10-30T04:24:50;17.90;99.90
2571;DHT22;1295;51.130;6.732;2022-10-30T04:27:16;17.90;99.90
2571;DHT22;1295;51.130;6.732;2022-10-30T04:29:42;17.90;99.90
2571;DHT22;1295;51.130;6.732;2022-10-30T04:32:08;17.90;99.90
2571;DHT22;1295;51.130;6.732;2022-10-30T04:34:33;17.80;99.90
2571;DHT22;1295;51.130;6.732;2022-10-30T04:36:58;17.80;99.90
2571;DHT22;1295;51.130;6.732;2022-10-30T04:39:24;17.80;99.90
2571;DHT22;1295;51.130;6.732;2022-10-30T04:41:50;17.80;99.90
2571;DHT22;1295;51.130;6.732;2022-10-30T04:44:15;17.80;99.90
2571;DHT22;1295;51.130;6.732;2022-10-30T04:46:42;17.80;99.90
2571;DHT22;1295;51.130;6.732;2022-10-30T04:49:07;17.80;99.90
2571;DHT22;1295;51.130;6.732;2022-10-30T04:51:33;17.80;99.90
2571;DHT22;1295;51.130;6.732;2022-10-30T04:54:00;17.70;99.90
2571;DHT22;1295;51.130;6.732;2022-10-30T04:56:25;17.80;99.90
2571;DHT22;1295;51.130;6.732;2022-10-30T04:58:51;17.70;99.90
2571;DHT22;1295;51.130;6.732;2022-10-30T05:01:17;17.70;99.90
2571;DHT22;1295;51.130;6.732;2022-10-30T05:03:42;17.70;99.90
2571;DHT22;1295;51.130;6.732;2022-10-30T05:06:16;17.70;99.90
2571;DHT22;1295;51.130;6.732;2022-10-30T05:08:37;17.70;99.90
2571;DHT22;1295;51.130;6.732;2022-10-30T05:11:03;17.70;99.90
2571;DHT22;1295;51.130;6.732;2022-10-30T05:13:29;17.70;99.90
2571;DHT22;1295;51.130;6.732;2022-10-30T05:15:55;17.70;99.90
2571;DHT22;1295;51.130;6.732;2022-10-30T05:18:21;17.70;99.90
2571;DHT22;1295;51.130;6.732;2022-10-30T05:20:47;17.70;99.90
2571;DHT22;1295;51.130;6.732;2022-10-30T05:23:13;17.60;99.90
2571;DHT22;1295;51.130;6.732;2022-10-30T05:25:39;17.60;99.90
2571;DHT22;1295;51.130;6.732;2022-10-30T05:28:05;17.60;99.90
2571;DHT22;1295;51.130;6.732;2022-10-30T05:30:31;17.50;99.90
2571;DHT22;1295;51.130;6.732;2022-10-30T05:33:00;17.50;99.90
2571;DHT22;1295;51.130;6.732;2022-10-30T05:35:25;17.60;99.90
2571;DHT22;1295;51.130;6.732;2022-10-30T05:37:51;17.60;99.90
2571;DHT22;1295;51.130;6.732;2022-10-30T05:40:17;17.60;99.90
2571;DHT22;1295;51.130;6.732;2022-10-30T05:42:45;17.60;99.90
2571;DHT22;1295;51.130;6.732;2022-10-30T05:45:10;17.60;99.90
2571;DHT22;1295;51.130;6.732;2022-10-30T05:47:36;17.50;99.90
2571;DHT22;1295;51.130;6.732;2022-10-30T05:50:03;17.50;99.90
2571;DHT22;1295;51.130;6.732;2022-10-30T05:52:28;17.50;99.90
2571;DHT22;1295;51.130;6.732;2022-10-30T05:54:54;17.60;99.90
2571;DHT22;1295;51.130;6.732;2022-10-30T05:57:19;17.60;99.90
2571;DHT22;1295;51.130;6.732;2022-10-30T05:59:45;17.60;99.90
2571;DHT22;1295;51.130;6.732;2022-10-30T06:02:11;17.60;99.90
2571;DHT22;1295;51.130;6.732;2022-10-30T06:04:37;17.50;99.90
2571;DHT22;1295;51.130;6.732;2022-10-30T06:07:03;17.50;99.90
2571;DHT22;1295;51.130;6.732;2022-10-30T06:09:28;17.50;99.90
2571;DHT22;1295;51.130;6.732;2022-10-30T06:11:55;17.50;99.90
2571;DHT22;1295;51.130;6.732;2022-10-30T06:14:20;17.50;99.90
2571;DHT22;1295;51.130;6.732;2022-10-30T06:16:46;17.50;99.90
2571;DHT22;1295;51.130;6.732;2022-10-30T06:19:12;17.50;99.90
2571;DHT22;1295;51.130;6.732;2022-10-30T06:21:37;17.50;99.90
2571;DHT22;1295;51.130;6.732;2022-10-30T06:24:05;17.50;99.90
2571;DHT22;1295;51.130;6.732;2022-10-30T06:26:30;17.40;99.90
2571;DHT22;1295;51.130;6.732;2022-10-30T06:28:56;17.40;99.90
2571;DHT22;1295;51.130;6.732;2022-10-30T06:31:22;17.40;99.90
2571;DHT22;1295;51.130;6.732;2022-10-30T06:33:48;17.40;99.90
2571;DHT22;1295;51.130;6.732;2022-10-30T06:36:19;17.40;99.90
2571;DHT22;1295;51.130;6.732;2022-10-30T06:38:44;17.40;99.90
2571;DHT22;1295;51.130;6.732;2022-10-30T06:41:11;17.40;99.90
2571;DHT22;1295;51.130;6.732;2022-10-30T06:43:36;17.40;99.90
2571;DHT22;1295;51.130;6.732;2022-10-30T06:46:02;17.40;99.90
2571;DHT22;1295;51.130;6.732;2022-10-30T06:48:28;17.40;99.90
2571;DHT22;1295;51.130;6.732;2022-10-30T06:50:55;17.40;99.90
2571;DHT22;1295;51.130;6.732;2022-10-30T06:53:20;17.40;99.90
2571;DHT22;1295;51.130;6.732;2022-10-30T06:55:52;17.30;99.90
2571;DHT22;1295;51.130;6.732;2022-10-30T06:58:11;17.30;99.90
2571;DHT22;1295;51.130;6.732;2022-10-30T07:00:37;17.40;99.90
2571;DHT22;1295;51.130;6.732;2022-10-30T07:03:02;17.30;99.90
2571;DHT22;1295;51.130;6.732;2022-10-30T07:05:28;17.30;99.90
2571;DHT22;1295;51.130;6.732;2022-10-30T07:07:55;17.30;99.90
2571;DHT22;1295;51.130;6.732;2022-10-30T07:10:21;17.40;99.90
2571;DHT22;1295;51.130;6.732;2022-10-30T07:12:50;17.30;99.90
2571;DHT22;1295;51.130;6.732;2022-10-30T07:15:15;17.30;99.90
2571;DHT22;1295;51.130;6.732;2022-10-30T07:17:41;17.30;99.90
2571;DHT22;1295;51.130;6.732;2022-10-30T07:20:07;16.90;99.90
2571;DHT22;1295;51.130;6.732;2022-10-30T07:22:37;17.20;99.90
2571;DHT22;1295;51.130;6.732;2022-10-30T07:24:59;17.20;99.90
2571;DHT22;1295;51.130;6.732;2022-10-30T07:27:25;17.30;99.90
2571;DHT22;1295;51.130;6.732;2022-10-30T07:29:51;17.30;99.90
2571;DHT22;1295;51.130;6.732;2022-10-30T07:32:16;17.20;99.90
2571;DHT22;1295;51.130;6.732;2022-10-30T07:34:42;17.20;99.90
2571;DHT22;1295;51.130;6.732;2022-10-30T07:37:08;17.20;99.90
2571;DHT22;1295;51.130;6.732;2022-10-30T07:39:34;17.30;99.90
2571;DHT22;1295;51.130;6.732;2022-10-30T07:41:59;17.10;99.90
2571;DHT22;1295;51.130;6.732;2022-10-30T07:44:26;17.20;99.90
2571;DHT22;1295;51.130;6.732;2022-10-30T07:46:51;17.20;99.90
2571;DHT22;1295;51.130;6.732;2022-10-30T07:49:17;16.90;99.90
2571;DHT22;1295;51.130;6.732;2022-10-30T07:51:43;17.10;99.90
2571;DHT22;1295;51.130;6.732;2022-10-30T07:54:08;17.20;99.90
2571;DHT22;1295;51.130;6.732;2022-10-30T07:56:34;17.20;99.90
2571;DHT22;1295;51.130;6.732;2022-10-30T07:59:00;17.10;99.90
2571;DHT22;1295;51.130;6.732;2022-10-30T08:01:25;17.10;99.90
2571;DHT22;1295;51.130;6.732;2022-10-30T08:03:52;17.40;99.90
2571;DHT22;1295;51.130;6.732;2022-10-30T08:06:17;17.40;99.90
2571;DHT22;1295;51.130;6.732;2022-10-30T08:08:43;17.40;99.90
2571;DHT22;1295;51.130;6.732;2022-10-30T08:11:09;17.60;99.90
2571;DHT22;1295;51.130;6.732;2022-10-30T08:13:34;17.70;99.90
2571;DHT22;1295;51.130;6.732;2022-10-30T08:16:00;17.70;99.90
2571;DHT22;1295;51.130;6.732;2022-10-30T08:18:26;17.80;99.90
2571;DHT22;1295;51.130;6.732;2022-10-30T08:20:52;17.80;99.90
2571;DHT22;1295;51.130;6.732;2022-10-30T08:23:17;17.90;99.90
2571;DHT22;1295;51.130;6.732;2022-10-30T08:25:43;17.90;99.90
2571;DHT22;1295;51.130;6.732;2022-10-30T08:28:09;17.90;99.90
2571;DHT22;1295;51.130;6.732;2022-10-30T08:30:34;17.80;99.90
2571;DHT22;1295;51.130;6.732;2022-10-30T08:33:01;17.80;99.90
2571;DHT22;1295;51.130;6.732;2022-10-30T08:35:26;17.90;99.90
2571;DHT22;1295;51.130;6.732;2022-10-30T08:37:56;17.90;99.90
2571;DHT22;1295;51.130;6.732;2022-10-30T08:40:29;17.90;99.90
2571;DHT22;1295;51.130;6.732;2022-10-30T08:42:55;18.00;99.90
2571;DHT22;1295;51.130;6.732;2022-10-30T08:45:20;18.00;99.90
2571;DHT22;1295;51.130;6.732;2022-10-30T08:47:46;18.10;99.90
2571;DHT22;1295;51.130;6.732;2022-10-30T08:50:11;18.20;99.90
2571;DHT22;1295;51.130;6.732;2022-10-30T08:52:37;18.20;99.90
2571;DHT22;1295;51.130;6.732;2022-10-30T08:55:03;18.40;99.90
2571;DHT22;1295;51.130;6.732;2022-10-30T08:57:33;18.50;99.90
2571;DHT22;1295;51.130;6.732;2022-10-30T08:59:55;18.50;99.90
2571;DHT22;1295;51.130;6.732;2022-10-30T09:02:20;18.70;99.90
2571;DHT22;1295;51.130;6.732;2022-10-30T09:04:46;18.70;99.90
2571;DHT22;1295;51.130;6.732;2022-10-30T09:07:12;18.90;99.90
2571;DHT22;1295;51.130;6.732;2022-10-30T09:09:37;19.20;99.90
2571;DHT22;1295;51.130;6.732;2022-10-30T09:12:03;19.10;99.90
2571;DHT22;1295;51.130;6.732;2022-10-30T09:14:30;19.30;99.90
2571;DHT22;1295;51.130;6.732;2022-10-30T09:16:55;19.30;99.90
2571;DHT22;1295;51.130;6.732;2022-10-30T09:19:21;19.20;99.90
2571;DHT22;1295;51.130;6.732;2022-10-30T09:21:47;19.50;99.90
2571;DHT22;1295;51.130;6.732;2022-10-30T09:24:13;19.30;99.90
2571;DHT22;1295;51.130;6.732;2022-10-30T09:26:39;19.40;99.90
2571;DHT22;1295;51.130;6.732;2022-10-30T09:29:05;19.40;99.90
2571;DHT22;1295;51.130;6.732;2022-10-30T09:31:31;19.20;99.90
2571;DHT22;1295;51.130;6.732;2022-10-30T09:33:56;19.60;99.90
2571;DHT22;1295;51.130;6.732;2022-10-30T09:36:22;19.50;99.90
2571;DHT22;1295;51.130;6.732;2022-10-30T09:38:48;19.40;99.90
2571;DHT22;1295;51.130;6.732;2022-10-30T09:41:19;19.10;99.90
2571;DHT22;1295;51.130;6.732;2022-10-30T09:43:48;19.40;99.90
2571;DHT22;1295;51.130;6.732;2022-10-30T09:49:45;19.50;99.90
2571;DHT22;1295;51.130;6.732;2022-10-30T09:52:04;20.50;99.90
2571;DHT22;1295;51.130;6.732;2022-10-30T09:54:33;20.40;99.90
2571;DHT22;1295;51.130;6.732;2022-10-30T09:57:00;19.40;99.90
2571;DHT22;1295;51.130;6.732;2022-10-30T09:59:47;19.40;99.90
2571;DHT22;1295;51.130;6.732;2022-10-30T10:02:16;19.60;99.90
2571;DHT22;1295;51.130;6.732;2022-10-30T10:04:40;19.40;99.90
2571;DHT22;1295;51.130;6.732;2022-10-30T10:07:12;20.50;99.90
2571;DHT22;1295;51.130;6.732;2022-10-30T10:09:32;20.20;99.90
2571;DHT22;1295;51.130;6.732;2022-10-30T10:11:58;20.20;99.90
2571;DHT22;1295;51.130;6.732;2022-10-30T10:14:24;20.10;99.90
2571;DHT22;1295;51.130;6.732;2022-10-30T10:16:50;20.00;99.90
2571;DHT22;1295;51.130;6.732;2022-10-30T10:19:20;19.80;99.90
2571;DHT22;1295;51.130;6.732;2022-10-30T10:21:46;20.30;99.90
2571;DHT22;1295;51.130;6.732;2022-10-30T10:24:17;21.00;99.90
2571;DHT22;1295;51.130;6.732;2022-10-30T10:26:49;21.50;99.90
2571;DHT22;1295;51.130;6.732;2022-10-30T10:29:24;21.30;99.90
2571;DHT22;1295;51.130;6.732;2022-10-30T10:31:51;20.50;99.90
2571;DHT22;1295;51.130;6.732;2022-10-30T10:34:24;20.60;99.90
2571;DHT22;1295;51.130;6.732;2022-10-30T10:36:56;20.40;99.90
2571;DHT22;1295;51.130;6.732;2022-10-30T10:39:44;20.10;99.90
2571;DHT22;1295;51.130;6.732;2022-10-30T10:42:14;20.00;99.90
2571;DHT22;1295;51.130;6.732;2022-10-30T10:44:57;21.30;99.90
2571;DHT22;1295;51.130;6.732;2022-10-30T10:47:48;20.70;99.90
2571;DHT22;1295;51.130;6.732;2022-10-30T10:50:12;20.70;99.90
2571;DHT22;1295;51.130;6.732;2022-10-30T10:52:36;21.00;99.90
2571;DHT22;1295;51.130;6.732;2022-10-30T10:55:01;21.30;99.90
2571;DHT22;1295;51.130;6.732;2022-10-30T10:57:28;21.30;99.90
2571;DHT22;1295;51.130;6.732;2022-10-30T10:59:56;21.60;99.90
2571;DHT22;1295;51.130;6.732;2022-10-30T11:02:28;21.30;99.90
2571;DHT22;1295;51.130;6.732;2022-10-30T11:04:52;21.00;99.90
2571;DHT22;1295;51.130;6.732;2022-10-30T11:07:21;21.20;99.90
2571;DHT22;1295;51.130;6.732;2022-10-30T11:09:47;20.90;99.90
2571;DHT22;1295;51.130;6.732;2022-10-30T11:12:28;20.90;99.90
2571;DHT22;1295;51.130;6.732;2022-10-30T11:14:54;20.80;99.90
2571;DHT22;1295;51.130;6.732;2022-10-30T11:20:11;21.40;99.90
2571;DHT22;1295;51.130;6.732;2022-10-30T11:22:32;21.70;99.90
2571;DHT22;1295;51.130;6.732;2022-10-30T11:25:06;21.00;99.90
2571;DHT22;1295;51.130;6.732;2022-10-30T11:27:26;21.40;99.90
2571;DHT22;1295;51.130;6.732;2022-10-30T11:29:59;20.80;99.90
2571;DHT22;1295;51.130;6.732;2022-10-30T11:32:27;20.90;99.90
2571;DHT22;1295;51.130;6.732;2022-10-30T11:35:00;20.90;99.90
2571;DHT22;1295;51.130;6.732;2022-10-30T11:37:29;20.90;99.90
2571;DHT22;1295;51.130;6.732;2022-10-30T11:40:02;21.30;99.90
2571;DHT22;1295;51.130;6.732;2022-10-30T11:42:26;21.30;99.90
2571;DHT22;1295;51.130;6.732;2022-10-30T11:44:52;21.20;99.90
2571;DHT22;1295;51.130;6.732;2022-10-30T11:47:18;21.40;99.90
2571;DHT22;1295;51.130;6.732;2022-10-30T11:49:46;21.50;99.90
2571;DHT22;1295;51.130;6.732;2022-10-30T11:52:11;21.60;99.90
2571;DHT22;1295;51.130;6.732;2022-10-30T11:54:37;21.50;99.90
2571;DHT22;1295;51.130;6.732;2022-10-30T11:57:02;21.10;99.90
2571;DHT22;1295;51.130;6.732;2022-10-30T11:59:28;21.10;99.90
2571;DHT22;1295;51.130;6.732;2022-10-30T12:01:58;21.00;99.90
2571;DHT22;1295;51.130;6.732;2022-10-30T12:04:23;21.50;99.90
2571;DHT22;1295;51.130;6.732;2022-10-30T12:07:05;21.60;99.90
2571;DHT22;1295;51.130;6.732;2022-10-30T12:09:20;21.40;99.90
2571;DHT22;1295;51.130;6.732;2022-10-30T12:11:46;21.40;99.90
2571;DHT22;1295;51.130;6.732;2022-10-30T12:14:22;21.30;99.90
2571;DHT22;1295;51.130;6.732;2022-10-30T12:16:50;21.40;99.90
2571;DHT22;1295;51.130;6.732;2022-10-30T12:19:16;22.50;99.90
2571;DHT22;1295;51.130;6.732;2022-10-30T12:21:45;22.50;99.90
2571;DHT22;1295;51.130;6.732;2022-10-30T12:24:14;21.80;99.90
2571;DHT22;1295;51.130;6.732;2022-10-30T12:26:37;21.80;99.90
2571;DHT22;1295;51.130;6.732;2022-10-30T12:29:04;22.40;99.90
2571;DHT22;1295;51.130;6.732;2022-10-30T12:31:33;21.10;99.90
2571;DHT22;1295;51.130;6.732;2022-10-30T12:34:17;21.00;99.90
2571;DHT22;1295;51.130;6.732;2022-10-30T12:36:44;20.90;99.90
2571;DHT22;1295;51.130;6.732;2022-10-30T12:39:12;21.10;99.90
2571;DHT22;1295;51.130;6.732;2022-10-30T12:41:52;23.00;99.90
2571;DHT22;1295;51.130;6.732;2022-10-30T12:44:22;23.20;99.90
2571;DHT22;1295;51.130;6.732;2022-10-30T12:46:50;22.60;99.90
2571;DHT22;1295;51.130;6.732;2022-10-30T12:49:30;22.60;99.90
2571;DHT22;1295;51.130;6.732;2022-10-30T12:52:03;22.10;99.90
2571;DHT22;1295;51.130;6.732;2022-10-30T12:54:35;22.10;99.90
2571;DHT22;1295;51.130;6.732;2022-10-30T12:57:04;22.30;99.90
2571;DHT22;1295;51.130;6.732;2022-10-30T12:59:32;21.80;99.90
2571;DHT22;1295;51.130;6.732;2022-10-30T13:02:02;21.80;99.90
2571;DHT22;1295;51.130;6.732;2022-10-30T13:07:12;20.80;99.90
2571;DHT22;1295;51.130;6.732;2022-10-30T13:09:39;21.20;99.90
2571;DHT22;1295;51.130;6.732;2022-10-30T13:12:05;21.50;99.90
2571;DHT22;1295;51.130;6.732;2022-10-30T13:14:48;22.00;99.90
2571;DHT22;1295;51.130;6.732;2022-10-30T13:17:12;22.20;99.90
2571;DHT22;1295;51.130;6.732;2022-10-30T13:19:39;21.90;99.90
2571;DHT22;1295;51.130;6.732;2022-10-30T13:22:06;21.60;99.90
2571;DHT22;1295;51.130;6.732;2022-10-30T13:24:53;22.10;99.90
2571;DHT22;1295;51.130;6.732;2022-10-30T13:27:17;21.90;99.90
2571;DHT22;1295;51.130;6.732;2022-10-30T13:32:31;21.60;99.90
2571;DHT22;1295;51.130;6.732;2022-10-30T13:34:57;21.60;99.90
2571;DHT22;1295;51.130;6.732;2022-10-30T13:40:10;21.70;99.90
2571;DHT22;1295;51.130;6.732;2022-10-30T13:42:42;21.50;99.90
2571;DHT22;1295;51.130;6.732;2022-10-30T13:45:27;22.20;99.90
2571;DHT22;1295;51.130;6.732;2022-10-30T13:49:03;21.80;99.90
2571;DHT22;1295;51.130;6.732;2022-10-30T13:50:45;21.80;99.90
2571;DHT22;1295;51.130;6.732;2022-10-30T13:53:11;22.00;99.90
2571;DHT22;1295;51.130;6.732;2022-10-30T13:55:33;22.00;99.90
2571;DHT22;1295;51.130;6.732;2022-10-30T13:58:21;22.20;99.90
2571;DHT22;1295;51.130;6.732;2022-10-30T14:01:04;22.20;99.90
2571;DHT22;1295;51.130;6.732;2022-10-30T14:03:56;22.00;99.90
2571;DHT22;1295;51.130;6.732;2022-10-30T14:06:25;22.00;99.90
2571;DHT22;1295;51.130;6.732;2022-10-30T14:08:53;22.40;99.90
2571;DHT22;1295;51.130;6.732;2022-10-30T14:11:16;21.70;99.90
2571;DHT22;1295;51.130;6.732;2022-10-30T14:13:45;21.40;99.90
2571;DHT22;1295;51.130;6.732;2022-10-30T14:19:00;21.80;99.90
2571;DHT22;1295;51.130;6.732;2022-10-30T14:24:02;21.60;99.90
2571;DHT22;1295;51.130;6.732;2022-10-30T14:26:27;21.60;99.90
2571;DHT22;1295;51.130;6.732;2022-10-30T14:28:53;21.40;99.90
2571;DHT22;1295;51.130;6.732;2022-10-30T14:31:30;21.40;99.90
2571;DHT22;1295;51.130;6.732;2022-10-30T14:33:48;21.50;99.90
2571;DHT22;1295;51.130;6.732;2022-10-30T14:39:23;21.60;99.90
2571;DHT22;1295;51.130;6.732;2022-10-30T14:41:29;21.30;99.90
2571;DHT22;1295;51.130;6.732;2022-10-30T14:44:34;21.60;99.90
2571;DHT22;1295;51.130;6.732;2022-10-30T14:49:45;21.20;99.90
2571;DHT22;1295;51.130;6.732;2022-10-30T14:52:14;21.10;99.90
2571;DHT22;1295;51.130;6.732;2022-10-30T14:54:43;21.10;99.90
2571;DHT22;1295;51.130;6.732;2022-10-30T14:59:37;21.20;99.90
2571;DHT22;1295;51.130;6.732;2022-10-30T15:02:15;21.30;99.90
2571;DHT22;1295;51.130;6.732;2022-10-30T15:07:25;21.00;99.90
2571;DHT22;1295;51.130;6.732;2022-10-30T15:09:57;20.90;99.90
2571;DHT22;1295;51.130;6.732;2022-10-30T15:15:02;21.10;99.90
2571;DHT22;1295;51.130;6.732;2022-10-30T15:17:30;21.30;99.90
2571;DHT22;1295;51.130;6.732;2022-10-30T15:19:54;21.50;99.90
2571;DHT22;1295;51.130;6.732;2022-10-30T15:22:21;21.40;99.90
2571;DHT22;1295;51.130;6.732;2022-10-30T15:24:47;21.70;99.90
2571;DHT22;1295;51.130;6.732;2022-10-30T15:27:17;21.60;99.90
2571;DHT22;1295;51.130;6.732;2022-10-30T15:29:45;21.50;99.90
2571;DHT22;1295;51.130;6.732;2022-10-30T15:32:16;21.50;99.90
2571;DHT22;1295;51.130;6.732;2022-10-30T15:34:40;21.30;99.90
2571;DHT22;1295;51.130;6.732;2022-10-30T15:37:09;21.20;99.90
2571;DHT22;1295;51.130;6.732;2022-10-30T15:39:35;21.20;99.90
2571;DHT22;1295;51.130;6.732;2022-10-30T15:42:00;21.10;99.90
2571;DHT22;1295;51.130;6.732;2022-10-30T15:44:27;20.90;99.90
2571;DHT22;1295;51.130;6.732;2022-10-30T15:46:52;21.00;99.90
2571;DHT22;1295;51.130;6.732;2022-10-30T15:49:39;20.60;99.90
2571;DHT22;1295;51.130;6.732;2022-10-30T15:52:10;20.60;99.90
2571;DHT22;1295;51.130;6.732;2022-10-30T15:54:30;20.70;99.90
2571;DHT22;1295;51.130;6.732;2022-10-30T15:56:56;20.60;99.90
2571;DHT22;1295;51.130;6.732;2022-10-30T15:59:26;20.40;99.90
2571;DHT22;1295;51.130;6.732;2022-10-30T16:01:52;20.40;99.90
2571;DHT22;1295;51.130;6.732;2022-10-30T16:04:19;20.30;99.90
2571;DHT22;1295;51.130;6.732;2022-10-30T16:06:51;20.20;99.90
2571;DHT22;1295;51.130;6.732;2022-10-30T16:09:16;20.20;99.90
2571;DHT22;1295;51.130;6.732;2022-10-30T16:11:42;20.10;99.90
2571;DHT22;1295;51.130;6.732;2022-10-30T16:14:09;20.10;99.90
2571;DHT22;1295;51.130;6.732;2022-10-30T16:16:33;20.00;99.90
2571;DHT22;1295;51.130;6.732;2022-10-30T16:19:00;20.00;99.90
2571;DHT22;1295;51.130;6.732;2022-10-30T16:21:25;20.00;99.90
2571;DHT22;1295;51.130;6.732;2022-10-30T16:23:53;19.90;99.90
2571;DHT22;1295;51.130;6.732;2022-10-30T16:26:34;19.90;99.90
2571;DHT22;1295;51.130;6.732;2022-10-30T16:29:01;19.90;99.90
2571;DHT22;1295;51.130;6.732;2022-10-30T16:31:28;19.90;99.90
2571;DHT22;1295;51.130;6.732;2022-10-30T16:33:52;19.90;99.90
2571;DHT22;1295;51.130;6.732;2022-10-30T16:36:17;19.90;99.90
2571;DHT22;1295;51.130;6.732;2022-10-30T16:38:45;19.90;99.90
2571;DHT22;1295;51.130;6.732;2022-10-30T16:41:12;19.90;99.90